Time;durP1;ratioP1;P1;durP2;ratioP2;P2;SDS_P1;SDS_P2;PMS_P1;PMS_P2;Temp;Humidity;BMP_temperature;BMP_pressure;BME280_temperature;BME280_humidity;BME280_pressure;Samples;Min_cycle;Max_cycle;Signal;HPM_P1;HPM_P2
2021/09/11 00:00:14;;;;;;;17.53;16.00;;;20.30;1.00;;;;;;5049979;28;20199;-54
2021/09/11 00:02:40;;;;;;;18.80;17.00;;;20.30;1.00;;;;;;5049836;28;20271;-54
2021/09/11 00:05:06;;;;;;;17.87;16.17;;;20.30;1.00;;;;;;5049886;28;20535;-54
2021/09/11 00:07:32;;;;;;;18.23;16.53;;;20.40;1.00;;;;;;5048082;28;20786;-55
2021/09/11 00:09:57;;;;;;;19.03;17.13;;;20.40;1.00;;;;;;5049945;28;20523;-55
2021/09/11 00:12:23;;;;;;;18.40;16.70;;;20.40;1.00;;;;;;5044965;28;20194;-56
2021/09/11 00:14:48;;;;;;;19.60;17.80;;;20.50;1.00;;;;;;5050149;28;20192;-55
2021/09/11 00:17:14;;;;;;;19.73;17.83;;;20.50;1.00;;;;;;5045356;28;20255;-54
2021/09/11 00:19:39;;;;;;;18.97;17.10;;;20.40;1.00;;;;;;5051733;28;20189;-54
2021/09/11 00:22:05;;;;;;;18.73;17.03;;;20.30;1.00;;;;;;5053825;28;20181;-56
2021/09/11 00:24:31;;;;;;;19.60;17.53;;;20.30;1.00;;;;;;5050662;28;20268;-56
2021/09/11 00:26:56;;;;;;;20.37;18.30;;;20.30;1.00;;;;;;5053781;28;20289;-54
2021/09/11 00:29:23;;;;;;;23.83;17.73;;;20.30;1.00;;;;;;5052396;28;20270;-56
2021/09/11 00:31:48;;;;;;;19.40;17.60;;;20.30;1.00;;;;;;5050053;28;20185;-54
2021/09/11 00:34:14;;;;;;;22.23;20.03;;;20.30;1.00;;;;;;5052383;28;20442;-55
2021/09/11 00:36:39;;;;;;;20.50;18.60;;;20.20;1.00;;;;;;5052621;28;20220;-54
2021/09/11 00:39:05;;;;;;;20.93;19.03;;;20.40;1.00;;;;;;5052481;28;20238;-55
2021/09/11 00:41:30;;;;;;;20.37;18.37;;;20.30;1.00;;;;;;5052770;28;20271;-55
2021/09/11 00:43:56;;;;;;;18.77;16.97;;;20.20;1.00;;;;;;5053345;28;20273;-55
2021/09/11 00:46:22;;;;;;;21.83;19.73;;;20.30;1.00;;;;;;5053272;28;20181;-54
2021/09/11 00:48:47;;;;;;;20.33;18.40;;;20.20;1.00;;;;;;5053193;28;20184;-55
2021/09/11 00:51:13;;;;;;;20.07;18.00;;;20.20;1.00;;;;;;5050525;28;20685;-55
2021/09/11 00:53:40;;;;;;;20.37;18.07;;;20.20;1.00;;;;;;5052494;28;20188;-56
2021/09/11 00:56:05;;;;;;;20.10;18.40;;;20.20;1.00;;;;;;5053189;28;20435;-53
2021/09/11 00:58:31;;;;;;;18.63;16.83;;;20.20;1.00;;;;;;5053023;28;20433;-57
2021/09/11 01:00:57;;;;;;;19.97;18.07;;;20.20;1.00;;;;;;5052912;28;20204;-56
2021/09/11 01:03:22;;;;;;;18.93;17.20;;;21.50;1.00;;;;;;5053050;28;20200;-56
2021/09/11 01:05:48;;;;;;;18.47;16.70;;;20.20;1.00;;;;;;5053770;28;20180;-56
2021/09/11 01:08:14;;;;;;;20.00;17.93;;;20.20;1.00;;;;;;5051440;28;20196;-54
2021/09/11 01:10:40;;;;;;;19.50;17.70;;;20.10;1.00;;;;;;5050821;28;20270;-55
2021/09/11 01:13:11;;;;;;;18.40;16.80;;;20.00;1.00;;;;;;5052710;28;20186;-55
2021/09/11 01:15:40;;;;;;;20.30;18.10;;;20.00;1.00;;;;;;5052202;28;20439;-55
2021/09/11 01:18:09;;;;;;;20.87;18.80;;;19.90;1.00;;;;;;5052677;28;20468;-54
2021/09/11 01:20:36;;;;;;;19.13;17.37;;;19.80;1.00;;;;;;5050592;28;20451;-54
2021/09/11 01:23:03;;;;;;;19.13;17.33;;;19.90;1.00;;;;;;5052577;28;20453;-54
2021/09/11 01:25:28;;;;;;;18.60;16.90;;;19.90;1.00;;;;;;5048908;28;20449;-54
2021/09/11 01:27:54;;;;;;;19.83;17.83;;;19.80;1.00;;;;;;5052433;28;20438;-54
2021/09/11 01:30:21;;;;;;;19.40;17.60;;;19.80;1.00;;;;;;5051495;28;20193;-55
2021/09/11 01:32:50;;;;;;;19.40;17.40;;;19.80;1.00;;;;;;5052647;28;20181;-55
2021/09/11 01:35:17;;;;;;;19.00;17.30;;;19.80;1.00;;;;;;5052280;28;20839;-54
2021/09/11 01:37:43;;;;;;;18.27;16.47;;;19.80;1.00;;;;;;5045930;28;20478;-54
2021/09/11 01:40:10;;;;;;;18.87;17.07;;;19.80;1.00;;;;;;5049179;28;20483;-54
2021/09/11 01:42:36;;;;;;;18.83;17.13;;;19.80;1.00;;;;;;5059778;28;20703;-54
2021/09/11 01:45:11;;;;;;;20.37;18.47;;;19.80;1.00;;;;;;5054849;28;20447;-55
2021/09/11 01:47:38;;;;;;;19.80;17.90;;;19.80;1.00;;;;;;5070794;28;20199;-55
2021/09/11 01:50:05;;;;;;;20.57;18.57;;;19.80;1.00;;;;;;5069294;28;20434;-54
2021/09/11 01:52:30;;;;;;;19.43;17.73;;;19.70;1.00;;;;;;5052011;28;20438;-56
2021/09/11 01:54:56;;;;;;;20.30;18.40;;;19.60;1.00;;;;;;5052132;28;20782;-55
2021/09/11 01:57:21;;;;;;;19.20;17.20;;;19.70;1.00;;;;;;5047468;28;20203;-55
2021/09/11 01:59:47;;;;;;;19.60;17.80;;;19.60;1.00;;;;;;5051961;28;20185;-54
2021/09/11 02:02:13;;;;;;;20.60;18.80;;;19.60;1.00;;;;;;5050808;28;20238;-54
2021/09/11 02:04:38;;;;;;;21.73;19.43;;;19.60;1.00;;;;;;5051272;28;20221;-54
2021/09/11 02:07:05;;;;;;;21.00;19.17;;;19.50;1.00;;;;;;5049516;28;20581;-57
2021/09/11 02:09:32;;;;;;;22.10;19.93;;;19.50;1.00;;;;;;5050392;28;20186;-55
2021/09/11 02:11:58;;;;;;;19.20;17.40;;;19.50;1.00;;;;;;5049205;28;20444;-55
2021/09/11 02:14:24;;;;;;;19.73;17.83;;;19.50;1.00;;;;;;5051281;28;20432;-56
2021/09/11 02:16:49;;;;;;;21.07;18.97;;;19.50;1.00;;;;;;5050057;28;20490;-54
2021/09/11 02:19:15;;;;;;;21.20;19.20;;;19.50;1.00;;;;;;5051469;28;20184;-57
2021/09/11 02:21:41;;;;;;;20.67;18.77;;;19.50;1.00;;;;;;5051755;28;20182;-54
2021/09/11 02:24:07;;;;;;;21.30;19.40;;;19.60;1.00;;;;;;5044627;28;20203;-54
2021/09/11 02:26:33;;;;;;;19.97;17.93;;;19.70;1.00;;;;;;5050020;28;20192;-55
2021/09/11 02:29:00;;;;;;;19.63;17.87;;;19.70;1.00;;;;;;5051620;28;21018;-55
2021/09/11 02:31:25;;;;;;;20.07;18.23;;;19.70;1.00;;;;;;5049949;28;20452;-54
2021/09/11 02:33:51;;;;;;;21.23;18.97;;;19.70;1.00;;;;;;5051534;28;20446;-56
2021/09/11 02:36:17;;;;;;;19.73;17.83;;;19.70;1.00;;;;;;5049460;28;20220;-54
2021/09/11 02:38:42;;;;;;;21.23;19.07;;;19.70;1.00;;;;;;5050616;28;20586;-55
2021/09/11 02:41:08;;;;;;;21.57;19.33;;;19.70;1.00;;;;;;5047951;28;20449;-55
2021/09/11 02:43:34;;;;;;;20.17;18.37;;;19.70;1.00;;;;;;5050885;28;20180;-55
2021/09/11 02:46:00;;;;;;;19.00;17.20;;;19.80;1.00;;;;;;5049510;28;20546;-56
2021/09/11 02:48:25;;;;;;;18.80;17.20;;;19.70;1.00;;;;;;5059659;28;20258;-54
2021/09/11 02:50:51;;;;;;;18.80;17.13;;;19.70;1.00;;;;;;5060830;28;20253;-54
2021/09/11 02:53:17;;;;;;;18.80;17.00;;;19.70;1.00;;;;;;5050785;28;20243;-55
2021/09/11 02:55:42;;;;;;;18.20;16.40;;;19.70;1.00;;;;;;5050770;28;20445;-55
2021/09/11 02:58:08;;;;;;;17.90;16.13;;;19.70;1.00;;;;;;5051029;28;20615;-55
2021/09/11 03:00:34;;;;;;;18.67;17.00;;;19.70;1.00;;;;;;5044648;28;20199;-55
2021/09/11 03:02:59;;;;;;;19.60;17.80;;;19.70;1.00;;;;;;5050955;28;20195;-55
2021/09/11 03:05:25;;;;;;;18.70;16.97;;;19.70;1.00;;;;;;5049089;28;20432;-55
2021/09/11 03:07:50;;;;;;;18.90;16.97;;;19.70;1.00;;;;;;5050071;28;20200;-55
2021/09/11 03:10:16;;;;;;;18.40;16.63;;;19.70;1.00;;;;;;5047873;28;20191;-54
2021/09/11 03:12:42;;;;;;;19.67;17.60;;;19.80;1.00;;;;;;5050375;28;20203;-54
2021/09/11 03:15:08;;;;;;;16.87;15.17;;;19.80;1.00;;;;;;5050022;28;20196;-54
2021/09/11 03:17:33;;;;;;;19.30;17.27;;;19.80;1.00;;;;;;5050266;28;20211;-54
2021/09/11 03:19:59;;;;;;;19.33;17.27;;;19.80;1.00;;;;;;5050555;28;20796;-54
2021/09/11 03:22:24;;;;;;;21.47;17.83;;;19.80;1.00;;;;;;5048673;28;20199;-58
2021/09/11 03:24:50;;;;;;;19.20;17.60;;;19.80;1.00;;;;;;5048649;28;20192;-56
2021/09/11 03:27:15;;;;;;;18.87;17.00;;;19.70;1.00;;;;;;5050481;28;20206;-54
2021/09/11 03:29:41;;;;;;;18.30;16.33;;;19.70;1.00;;;;;;5050405;28;20629;-55
2021/09/11 03:32:07;;;;;;;19.10;17.30;;;19.70;1.00;;;;;;5045437;28;20192;-54
2021/09/11 03:34:33;;;;;;;18.73;17.00;;;19.60;1.00;;;;;;5040816;28;20253;-55
2021/09/11 03:36:59;;;;;;;19.43;17.00;;;19.60;1.00;;;;;;5049354;28;20887;-55
2021/09/11 03:39:25;;;;;;;18.70;16.77;;;19.60;1.00;;;;;;5050323;28;20442;-55
2021/09/11 03:41:51;;;;;;;21.93;15.60;;;19.60;1.00;;;;;;5049494;28;20454;-55
2021/09/11 03:44:16;;;;;;;18.67;17.00;;;19.60;1.00;;;;;;5049094;28;20778;-54
2021/09/11 03:46:42;;;;;;;17.77;16.07;;;19.60;1.00;;;;;;5050141;28;20590;-54
2021/09/11 03:49:07;;;;;;;16.60;15.10;;;19.50;1.00;;;;;;5050252;28;20270;-54
2021/09/11 03:51:34;;;;;;;17.47;15.87;;;19.50;1.00;;;;;;5048744;28;20665;-56
2021/09/11 03:54:03;;;;;;;18.23;16.63;;;19.60;1.00;;;;;;5051207;28;20182;-55
2021/09/11 03:56:29;;;;;;;16.33;14.67;;;19.60;1.00;;;;;;5054040;28;20448;-54
2021/09/11 03:58:55;;;;;;;17.10;15.50;;;19.50;1.00;;;;;;5052782;28;20449;-54
2021/09/11 04:01:20;;;;;;;17.10;15.50;;;19.60;1.00;;;;;;5054047;28;20259;-54
2021/09/11 04:03:46;;;;;;;17.53;15.70;;;19.60;1.00;;;;;;5054297;28;20181;-55
2021/09/11 04:06:11;;;;;;;16.90;15.37;;;19.60;1.00;;;;;;5053345;28;20188;-56
2021/09/11 04:08:38;;;;;;;16.77;15.20;;;19.60;1.00;;;;;;5053123;28;20250;-56
2021/09/11 04:11:03;;;;;;;18.00;16.40;;;19.50;1.00;;;;;;5053255;28;20634;-54
2021/09/11 04:13:29;;;;;;;16.57;14.97;;;19.50;1.00;;;;;;5054003;28;20447;-55
2021/09/11 04:15:54;;;;;;;15.40;14.00;;;19.40;1.00;;;;;;5053731;28;20550;-55
2021/09/11 04:18:20;;;;;;;16.83;15.33;;;19.30;1.00;;;;;;5054012;28;20222;-55
2021/09/11 04:20:45;;;;;;;16.97;15.27;;;19.20;1.00;;;;;;5053253;28;20556;-55
2021/09/11 04:23:11;;;;;;;18.33;16.63;;;19.10;1.00;;;;;;5051838;28;20304;-54
2021/09/11 04:25:36;;;;;;;16.67;15.13;;;19.10;1.00;;;;;;5053146;28;20708;-54
2021/09/11 04:28:02;;;;;;;16.13;14.47;;;19.00;1.00;;;;;;5053611;28;20199;-54
2021/09/11 04:30:28;;;;;;;16.87;15.13;;;19.00;1.00;;;;;;5052582;28;20203;-55
2021/09/11 04:32:53;;;;;;;16.93;15.33;;;19.00;1.00;;;;;;5053639;28;20187;-54
2021/09/11 04:35:19;;;;;;;20.17;16.30;;;21.40;1.00;;;;;;5053573;28;20176;-54
2021/09/11 04:37:45;;;;;;;17.50;15.90;;;19.00;1.00;;;;;;5051620;28;20485;-54
2021/09/11 04:40:11;;;;;;;17.43;15.77;;;19.00;1.00;;;;;;5053545;28;20522;-55
2021/09/11 04:42:36;;;;;;;17.53;15.93;;;19.10;1.00;;;;;;5051438;28;20181;-54
2021/09/11 04:45:03;;;;;;;16.37;14.70;;;19.10;1.00;;;;;;5051703;28;20480;-56
2021/09/11 04:47:29;;;;;;;16.10;14.70;;;19.10;1.00;;;;;;5052439;28;20222;-54
2021/09/11 04:49:55;;;;;;;17.50;15.97;;;19.00;1.00;;;;;;5053265;28;20952;-55
2021/09/11 04:52:21;;;;;;;17.30;15.60;;;19.00;1.00;;;;;;5052683;28;20187;-54
2021/09/11 04:54:46;;;;;;;17.40;15.67;;;19.00;1.00;;;;;;5051661;28;20443;-54
2021/09/11 04:57:12;;;;;;;17.97;16.17;;;19.00;1.00;;;;;;5052252;28;20277;-54
2021/09/11 04:59:38;;;;;;;18.70;16.67;;;18.90;1.00;;;;;;5053293;28;20637;-55
2021/09/11 05:02:03;;;;;;;16.77;15.10;;;19.00;1.00;;;;;;5048591;28;20327;-55
2021/09/11 05:04:29;;;;;;;18.70;17.00;;;18.90;1.00;;;;;;5052202;28;20194;-55
2021/09/11 05:06:54;;;;;;;17.87;16.20;;;18.90;1.00;;;;;;5052319;28;20625;-54
2021/09/11 05:09:20;;;;;;;17.63;15.93;;;19.00;1.00;;;;;;5052786;28;20199;-53
2021/09/11 05:11:46;;;;;;;17.07;15.47;;;19.00;1.00;;;;;;5052301;28;20195;-55
2021/09/11 05:14:12;;;;;;;17.57;15.47;;;19.10;1.00;;;;;;5053094;28;20438;-54
2021/09/11 05:16:38;;;;;;;16.80;15.20;;;19.10;1.00;;;;;;5049422;28;20961;-54
2021/09/11 05:19:03;;;;;;;18.80;16.33;;;19.20;1.00;;;;;;5052750;28;20690;-55
2021/09/11 05:21:29;;;;;;;15.30;14.00;;;19.30;1.00;;;;;;5049012;28;20190;-54
2021/09/11 05:23:54;;;;;;;16.17;14.57;;;19.30;1.00;;;;;;5052640;28;20258;-55
2021/09/11 05:26:20;;;;;;;16.57;15.03;;;19.40;1.00;;;;;;5052397;28;20206;-56
2021/09/11 05:28:45;;;;;;;16.63;15.03;;;19.30;1.00;;;;;;5052591;28;20235;-56
2021/09/11 05:31:11;;;;;;;15.90;14.30;;;19.50;1.00;;;;;;5050427;28;20207;-55
2021/09/11 05:33:36;;;;;;;16.53;14.87;;;19.60;1.00;;;;;;5052554;28;20522;-55
2021/09/11 05:36:02;;;;;;;15.80;14.30;;;19.60;1.00;;;;;;5052633;28;20254;-54
2021/09/11 05:38:28;;;;;;;17.23;15.77;;;19.70;1.00;;;;;;5050527;28;20569;-55
2021/09/11 05:40:53;;;;;;;16.47;14.87;;;19.80;1.00;;;;;;5050770;28;20192;-54
2021/09/11 05:43:19;;;;;;;15.60;13.90;;;20.00;1.00;;;;;;5048008;28;20208;-54
2021/09/11 05:45:44;;;;;;;15.93;14.43;;;20.00;1.00;;;;;;5051544;28;20220;-55
2021/09/11 05:48:10;;;;;;;15.63;13.30;;;20.20;1.00;;;;;;5060745;28;20180;-56
2021/09/11 05:50:36;;;;;;;16.57;14.90;;;20.30;1.00;;;;;;5070813;28;20377;-55
2021/09/11 05:53:01;;;;;;;15.87;13.30;;;20.40;1.00;;;;;;5065730;28;20185;-55
2021/09/11 05:55:27;;;;;;;16.03;14.57;;;20.50;1.00;;;;;;5051548;28;20239;-56
2021/09/11 05:57:53;;;;;;;15.87;14.40;;;20.70;1.00;;;;;;5052058;28;20299;-57
2021/09/11 06:00:18;;;;;;;15.50;14.20;;;20.80;1.00;;;;;;5052044;28;20172;-55
2021/09/11 06:02:44;;;;;;;16.53;15.13;;;20.90;1.00;;;;;;5051534;28;20190;-57
2021/09/11 06:05:10;;;;;;;15.30;14.00;;;21.20;1.00;;;;;;5052193;28;20651;-58
2021/09/11 06:07:37;;;;;;;15.80;14.30;;;21.40;1.00;;;;;;5051470;28;20180;-55
2021/09/11 06:10:03;;;;;;;17.40;13.77;;;21.60;1.00;;;;;;5051912;28;20271;-58
2021/09/11 06:12:29;;;;;;;14.70;13.30;;;21.60;1.00;;;;;;5051316;28;20411;-56
2021/09/11 06:14:54;;;;;;;16.13;14.40;;;21.70;1.00;;;;;;5051346;28;20518;-56
2021/09/11 06:17:20;;;;;;;14.57;13.17;;;21.80;1.00;;;;;;5050309;28;20211;-58
2021/09/11 06:19:46;;;;;;;14.33;13.13;;;21.90;1.00;;;;;;5051559;28;20201;-57
2021/09/11 06:22:13;;;;;;;15.30;13.70;;;22.10;1.00;;;;;;5051434;28;20275;-57
2021/09/11 06:24:39;;;;;;;14.30;13.03;;;22.10;1.00;;;;;;5050941;28;20173;-54
2021/09/11 06:27:06;;;;;;;14.90;13.43;;;22.20;1.00;;;;;;5051386;28;20477;-54
2021/09/11 06:29:32;;;;;;;14.13;12.87;;;22.30;1.00;;;;;;5049737;28;20422;-53
2021/09/11 06:31:57;;;;;;;14.50;13.00;;;22.30;1.00;;;;;;5050603;28;20967;-54
2021/09/11 06:34:23;;;;;;;14.23;12.77;;;22.30;1.00;;;;;;5051607;28;20260;-54
2021/09/11 06:36:48;;;;;;;12.97;11.77;;;22.30;1.00;;;;;;5050828;28;20319;-55
2021/09/11 06:39:14;;;;;;;13.70;12.30;;;22.40;1.00;;;;;;5051086;28;20227;-55
2021/09/11 06:41:40;;;;;;;13.23;11.97;;;22.60;1.00;;;;;;5050507;28;20672;-55
2021/09/11 06:44:06;;;;;;;13.80;12.03;;;22.70;1.00;;;;;;5051021;28;20268;-56
2021/09/11 06:46:31;;;;;;;13.43;12.10;;;22.90;1.00;;;;;;5051340;28;20225;-54
2021/09/11 06:48:57;;;;;;;12.97;11.87;;;23.00;1.00;;;;;;5054682;28;20180;-53
2021/09/11 06:51:22;;;;;;;13.87;12.60;;;23.00;1.00;;;;;;5070693;28;20191;-56
2021/09/11 06:53:49;;;;;;;13.70;12.40;;;23.00;1.00;;;;;;5069357;28;20192;-55
2021/09/11 06:56:15;;;;;;;13.07;11.87;;;23.10;1.00;;;;;;5050570;28;20422;-54
2021/09/11 06:58:41;;;;;;;14.03;12.73;;;23.30;1.00;;;;;;5050119;28;21209;-55
2021/09/11 07:01:06;;;;;;;12.60;11.50;;;23.40;1.00;;;;;;5050419;28;20180;-55
2021/09/11 07:03:32;;;;;;;13.63;12.43;;;23.40;1.00;;;;;;5065680;28;20180;-57
2021/09/11 07:05:58;;;;;;;14.37;13.00;;;23.60;1.00;;;;;;5060948;28;20650;-54
2021/09/11 07:08:24;;;;;;;14.50;12.90;;;23.50;1.00;;;;;;5050858;28;20235;-56
2021/09/11 07:10:49;;;;;;;14.23;13.03;;;23.30;1.00;;;;;;5050567;28;20857;-55
2021/09/11 07:13:15;;;;;;;14.20;12.80;;;23.30;1.00;;;;;;5050625;28;20534;-56
2021/09/11 07:15:42;;;;;;;13.43;12.03;;;23.40;1.00;;;;;;5050804;28;20195;-56
2021/09/11 07:18:08;;;;;;;12.43;11.30;;;23.40;1.00;;;;;;5050455;28;20232;-56
2021/09/11 07:20:33;;;;;;;13.10;12.00;;;23.40;1.00;;;;;;5051331;28;20509;-56
2021/09/11 07:22:59;;;;;;;14.13;12.83;;;23.50;1.00;;;;;;5050347;28;20202;-56
2021/09/11 07:25:24;;;;;;;13.17;12.07;;;23.60;1.00;;;;;;5050325;28;20173;-57
2021/09/11 07:27:50;;;;;;;13.40;12.00;;;23.70;1.00;;;;;;5049718;28;20206;-56
2021/09/11 07:30:15;;;;;;;13.80;12.40;;;23.70;1.00;;;;;;5049819;28;20188;-56
2021/09/11 07:32:41;;;;;;;13.70;12.37;;;23.70;1.00;;;;;;5050519;28;20717;-56
2021/09/11 07:35:07;;;;;;;12.80;11.70;;;23.60;1.00;;;;;;5050206;28;20181;-58
2021/09/11 07:37:32;;;;;;;12.27;11.27;;;23.60;1.00;;;;;;5069994;28;20223;-56
2021/09/11 07:39:59;;;;;;;12.50;11.27;;;23.60;1.00;;;;;;5070280;28;20565;-55
2021/09/11 07:42:24;;;;;;;12.80;11.60;;;23.60;1.00;;;;;;5069960;28;20442;-55
2021/09/11 07:44:50;;;;;;;12.27;11.27;;;23.60;1.00;;;;;;5070255;28;20233;-56
2021/09/11 07:47:17;;;;;;;12.60;11.43;;;23.60;1.00;;;;;;5069904;28;20263;-56
2021/09/11 07:49:43;;;;;;;11.83;10.83;;;23.50;1.00;;;;;;5070176;28;20629;-56
2021/09/11 07:52:09;;;;;;;13.20;12.00;;;23.40;1.00;;;;;;5060923;28;20443;-57
2021/09/11 07:54:34;;;;;;;13.53;12.23;;;23.30;1.00;;;;;;5049707;28;20429;-55
2021/09/11 07:57:00;;;;;;;12.37;11.27;;;23.20;1.00;;;;;;5050026;28;20212;-54
2021/09/11 07:59:25;;;;;;;12.23;11.23;;;23.20;1.00;;;;;;5050287;28;20177;-54
2021/09/11 08:01:51;;;;;;;12.20;11.20;;;23.20;1.00;;;;;;5050154;28;20646;-55
2021/09/11 08:04:16;;;;;;;13.13;12.03;;;23.10;1.00;;;;;;5049973;28;22215;-55
2021/09/11 08:06:42;;;;;;;14.50;13.10;;;23.10;1.00;;;;;;5050032;28;20200;-56
2021/09/11 08:09:07;;;;;;;12.77;11.67;;;23.00;1.00;;;;;;5049983;28;20196;-57
2021/09/11 08:11:33;;;;;;;13.50;12.30;;;23.00;1.00;;;;;;5049685;28;20180;-56
2021/09/11 08:14:00;;;;;;;13.60;12.30;;;23.00;1.00;;;;;;5053770;28;20186;-56
2021/09/11 08:16:25;;;;;;;12.90;11.80;;;23.00;1.00;;;;;;5049254;28;20259;-57
2021/09/11 08:18:51;;;;;;;12.80;11.70;;;23.10;1.00;;;;;;5049728;28;20861;-56
2021/09/11 08:21:16;;;;;;;11.87;10.83;;;23.30;1.00;;;;;;5049732;28;20188;-56
2021/09/11 08:23:43;;;;;;;11.73;10.73;;;23.20;1.00;;;;;;5049100;28;20234;-57
2021/09/11 08:26:09;;;;;;;13.00;11.90;;;23.30;1.00;;;;;;5049611;28;20254;-55
2021/09/11 08:28:35;;;;;;;11.90;10.90;;;23.30;1.00;;;;;;5063392;28;20417;-59
2021/09/11 08:31:01;;;;;;;12.80;11.80;;;23.40;1.00;;;;;;5069694;28;20440;-56
2021/09/11 08:33:27;;;;;;;14.10;13.00;;;23.40;1.00;;;;;;5069701;28;20205;-58
2021/09/11 08:35:52;;;;;;;13.50;12.30;;;23.50;1.00;;;;;;5069454;28;20454;-56
2021/09/11 08:38:18;;;;;;;13.17;12.07;;;23.50;1.00;;;;;;5069316;28;20290;-58
2021/09/11 08:40:44;;;;;;;13.90;12.50;;;23.60;1.00;;;;;;5071629;28;20180;-57
2021/09/11 08:43:09;;;;;;;15.27;13.87;;;23.70;1.00;;;;;;5073453;28;20179;-57
2021/09/11 08:45:35;;;;;;;14.10;12.90;;;23.70;1.00;;;;;;5061599;28;20176;-57
2021/09/11 08:48:02;;;;;;;12.57;11.40;;;23.70;1.00;;;;;;5053299;28;20204;-57
2021/09/11 08:50:29;;;;;;;13.80;12.60;;;23.90;1.00;;;;;;5053267;28;20172;-56
2021/09/11 08:52:56;;;;;;;12.20;11.20;;;24.10;1.00;;;;;;5054289;28;20408;-54
2021/09/11 08:55:21;;;;;;;14.63;13.43;;;24.30;1.00;;;;;;5051447;28;20462;-55
2021/09/11 08:58:02;;;;;;;14.40;13.03;;;24.60;1.00;;;;;;5052643;28;20466;-57
2021/09/11 09:00:50;;;;;;;12.97;11.80;;;24.80;1.00;;;;;;5052819;28;20188;-56
2021/09/11 09:03:30;;;;;;;12.50;11.40;;;25.00;1.00;;;;;;5052838;28;20948;-57
2021/09/11 09:06:21;;;;;;;12.97;11.87;;;25.20;1.00;;;;;;5052728;28;20443;-55
2021/09/11 09:08:50;;;;;;;14.07;12.87;;;25.20;1.00;;;;;;5052587;28;20450;-56
2021/09/11 09:11:35;;;;;;;12.50;11.43;;;25.10;1.00;;;;;;5052846;28;20407;-56
2021/09/11 09:14:15;;;;;;;13.00;11.93;;;24.90;1.00;;;;;;5051535;28;20434;-55
2021/09/11 09:16:52;;;;;;;14.43;13.10;;;24.90;1.00;;;;;;5052568;28;20880;-56
2021/09/11 09:19:21;;;;;;;13.00;11.90;;;24.90;1.00;;;;;;5052065;28;20439;-55
2021/09/11 09:21:49;;;;;;;12.67;11.57;;;25.10;1.00;;;;;;5052052;28;21180;-56
2021/09/11 09:24:36;;;;;;;13.30;12.20;;;25.20;1.00;;;;;;5052572;28;20933;-56
2021/09/11 09:27:06;;;;;;;11.27;10.33;;;25.20;1.00;;;;;;5052349;28;20919;-56
2021/09/11 09:29:37;;;;;;;12.80;11.90;;;25.20;1.00;;;;;;5052336;28;20422;-56
2021/09/11 09:32:04;;;;;;;12.67;11.57;;;25.30;1.00;;;;;;5052043;28;20450;-55
2021/09/11 09:34:37;;;;;;;11.30;10.30;;;25.40;1.00;;;;;;5052418;28;20825;-57
2021/09/11 09:37:05;;;;;;;10.40;9.50;;;25.40;1.00;;;;;;5051514;28;20519;-56
2021/09/11 09:39:40;;;;;;;10.63;9.80;;;25.30;1.00;;;;;;5052231;28;20409;-55
2021/09/11 09:42:05;;;;;;;9.70;8.90;;;25.30;1.00;;;;;;5051885;28;20527;-57
2021/09/11 09:44:41;;;;;;;11.10;10.10;;;25.30;1.00;;;;;;5051893;28;20492;-56
2021/09/11 09:47:10;;;;;;;10.73;9.73;;;25.40;1.00;;;;;;5051123;28;20199;-56
2021/09/11 09:49:35;;;;;;;10.37;9.50;;;25.40;1.00;;;;;;5052049;28;20800;-56
2021/09/11 09:52:01;;;;;;;10.17;9.23;;;25.60;1.00;;;;;;5051357;28;20442;-57
2021/09/11 09:54:27;;;;;;;11.40;9.90;;;25.60;1.00;;;;;;5051935;28;20180;-57
2021/09/11 09:56:54;;;;;;;11.23;10.23;;;25.80;1.00;;;;;;5051046;28;20220;-56
2021/09/11 09:59:20;;;;;;;9.90;9.00;;;26.00;1.00;;;;;;5051701;28;20444;-57
2021/09/11 10:01:49;;;;;;;10.87;10.03;;;26.20;1.00;;;;;;5051510;28;20862;-57
2021/09/11 10:04:18;;;;;;;11.70;10.17;;;26.10;1.00;;;;;;5050489;28;20181;-58
2021/09/11 10:06:49;;;;;;;9.80;8.93;;;25.90;1.00;;;;;;5050233;28;20475;-56
2021/09/11 10:09:20;;;;;;;10.83;9.93;;;25.80;1.00;;;;;;5051503;28;20493;-57
2021/09/11 10:11:51;;;;;;;10.30;9.40;;;25.80;1.00;;;;;;5051330;28;20568;-57
2021/09/11 10:14:19;;;;;;;10.23;9.33;;;25.80;1.00;;;;;;5051223;28;20764;-58
2021/09/11 10:17:05;;;;;;;9.93;9.13;;;26.00;1.00;;;;;;5050982;28;20493;-57
2021/09/11 10:19:39;;;;;;;10.63;9.70;;;26.20;1.00;;;;;;5065558;28;20408;-58
2021/09/11 10:22:27;;;;;;;10.13;9.33;;;26.40;1.00;;;;;;5071254;28;20427;-57
2021/09/11 10:25:02;;;;;;;9.97;9.17;;;26.60;1.00;;;;;;5071080;28;20435;-56
2021/09/11 10:27:38;;;;;;;10.03;9.23;;;26.50;1.00;;;;;;5071103;28;20560;-56
2021/09/11 10:30:11;;;;;;;10.70;9.87;;;26.70;1.00;;;;;;5069883;28;20420;-57
2021/09/11 10:32:37;;;;;;;11.57;10.57;;;26.50;1.00;;;;;;5071150;28;20447;-57
2021/09/11 10:35:03;;;;;;;11.87;10.53;;;26.30;1.00;;;;;;5069629;28;20555;-56
2021/09/11 10:37:49;;;;;;;10.70;9.80;;;26.40;1.00;;;;;;5070798;28;20643;-57
2021/09/11 10:40:16;;;;;;;9.17;8.47;;;26.60;1.00;;;;;;5066135;28;20209;-56
2021/09/11 10:43:06;;;;;;;9.10;8.30;;;26.80;1.00;;;;;;5049816;28;20430;-55
2021/09/11 10:45:47;;;;;;;9.77;8.60;;;26.70;1.00;;;;;;5050796;28;20457;-56
2021/09/11 10:48:44;;;;;;;9.70;8.50;;;26.70;1.00;;;;;;5051026;28;20493;-56
2021/09/11 10:51:09;;;;;;;9.13;8.40;;;26.60;1.00;;;;;;5050532;28;20453;-56
2021/09/11 10:53:35;;;;;;;10.30;9.30;;;26.60;1.00;;;;;;5050591;28;20854;-56
2021/09/11 10:56:24;;;;;;;9.60;8.80;;;26.50;1.00;;;;;;5050722;28;20276;-58
2021/09/11 10:59:19;;;;;;;9.63;8.80;;;26.40;1.00;;;;;;5050168;28;20489;-55
2021/09/11 11:02:05;;;;;;;10.10;9.30;;;26.30;1.00;;;;;;5040239;28;20837;-57
2021/09/11 11:04:35;;;;;;;10.60;9.70;;;25.90;1.00;;;;;;5050040;28;20500;-56
2021/09/11 11:07:06;;;;;;;10.23;9.43;;;25.70;1.00;;;;;;5050648;28;20895;-57
2021/09/11 11:09:36;;;;;;;15.50;10.37;;;25.80;1.00;;;;;;5050167;28;20512;-58
2021/09/11 11:12:03;;;;;;;11.13;10.13;;;25.70;1.00;;;;;;5048334;28;20819;-57
2021/09/11 11:14:31;;;;;;;11.07;10.17;;;25.70;1.00;;;;;;5049948;28;20463;-58
2021/09/11 11:16:57;;;;;;;12.10;10.57;;;25.70;1.00;;;;;;5050275;28;20478;-56
2021/09/11 11:19:25;;;;;;;13.60;12.40;;;25.60;1.00;;;;;;5050063;28;20406;-56
2021/09/11 11:21:55;;;;;;;13.77;12.63;;;25.40;1.00;;;;;;5049969;28;20195;-55
2021/09/11 11:24:21;;;;;;;15.07;13.67;;;25.00;1.00;;;;;;5055583;28;20449;-56
2021/09/11 11:26:47;;;;;;;13.80;12.60;;;24.70;1.00;;;;;;5070054;28;20438;-56
2021/09/11 11:29:21;;;;;;;16.23;14.53;;;24.30;1.00;;;;;;5070517;28;20764;-56
2021/09/11 11:31:48;;;;;;;15.33;13.93;;;24.00;1.00;;;;;;5059803;28;20485;-56
2021/09/11 11:34:14;;;;;;;16.00;14.50;;;23.80;1.00;;;;;;5050315;28;20435;-57
2021/09/11 11:36:47;;;;;;;18.40;16.70;;;23.60;1.00;;;;;;5049471;28;20485;-56
2021/09/11 11:39:33;;;;;;;20.23;18.17;;;23.60;1.00;;;;;;5050184;28;20193;-58
2021/09/11 11:42:08;;;;;;;20.03;16.93;;;23.10;1.00;;;;;;5049581;28;20442;-58
2021/09/11 11:44:45;;;;;;;20.67;18.77;;;22.50;1.00;;;;;;5049914;28;20423;-57
2021/09/11 11:47:35;;;;;;;20.60;18.60;;;21.90;1.00;;;;;;5050228;28;20420;-56
2021/09/11 11:50:27;;;;;;;19.13;17.33;;;21.60;20.70;;;;;;5048536;28;20417;-57
2021/09/11 11:52:59;;;;;;;21.63;19.37;;;21.40;99.90;;;;;;5049593;28;20962;-57
2021/09/11 11:55:26;;;;;;;19.63;17.73;;;21.40;99.90;;;;;;5050030;28;20438;-56
2021/09/11 11:57:52;;;;;;;18.00;16.27;;;21.30;99.90;;;;;;5049287;28;21023;-57
2021/09/11 12:00:18;;;;;;;17.57;15.53;;;21.40;99.90;;;;;;5047118;28;20473;-59
2021/09/11 12:02:49;;;;;;;17.30;15.60;;;21.40;99.90;;;;;;5049549;28;20653;-58
2021/09/11 12:05:15;;;;;;;17.87;16.10;;;21.40;99.90;;;;;;5050017;28;20413;-58
2021/09/11 12:07:42;;;;;;;20.20;18.30;;;21.40;99.90;;;;;;5049766;28;20972;-58
2021/09/11 12:10:15;;;;;;;20.30;18.07;;;21.30;99.90;;;;;;5049240;28;20226;-57
2021/09/11 12:12:49;;;;;;;19.20;17.20;;;21.40;99.90;;;;;;5049592;28;20428;-57
2021/09/11 12:15:18;;;;;;;17.67;16.00;;;21.50;99.90;;;;;;5053018;28;20402;-57
2021/09/11 12:17:55;;;;;;;17.33;15.60;;;21.50;99.90;;;;;;5053565;28;20862;-57
2021/09/11 12:20:22;;;;;;;16.90;15.40;;;21.60;99.90;;;;;;5053637;28;20488;-57
2021/09/11 12:23:11;;;;;;;14.67;13.27;;;21.70;99.90;;;;;;5053447;28;20406;-58
2021/09/11 12:25:55;;;;;;;14.90;13.37;;;21.80;99.90;;;;;;5053644;28;20406;-59
2021/09/11 12:28:32;;;;;;;14.97;13.47;;;21.80;99.90;;;;;;5053459;28;20788;-57
2021/09/11 12:30:58;;;;;;;13.47;12.20;;;21.90;99.90;;;;;;5053384;28;20420;-58
2021/09/11 12:33:25;;;;;;;15.80;14.20;;;21.90;99.90;;;;;;5053615;28;20434;-58
2021/09/11 12:35:51;;;;;;;13.83;12.53;;;22.10;99.90;;;;;;5053123;28;20443;-58
2021/09/11 12:38:17;;;;;;;13.10;11.90;;;22.20;99.90;;;;;;5053170;28;20467;-57
2021/09/11 12:40:43;;;;;;;12.77;11.57;;;22.40;99.90;;;;;;5052910;28;20529;-59